createdAt,value
2023-01-13T00:01:31.070Z,97247.78
2023-01-13T00:03:58.858Z,97253.94
2023-01-13T00:06:27.276Z,97247.66
2023-01-13T00:08:55.223Z,97242.31
2023-01-13T00:11:23.547Z,97235.97
2023-01-13T00:13:51.234Z,97233.53
2023-01-13T00:16:20.377Z,97240.56
2023-01-13T00:18:49.332Z,97236.03
2023-01-13T00:21:24.116Z,97236.88
2023-01-13T00:23:54.417Z,97235.22
2023-01-13T00:26:27.639Z,97233.53
2023-01-13T00:28:59.232Z,97242.22
2023-01-13T00:31:29.064Z,97235.41
2023-01-13T00:33:58.149Z,97231.34
2023-01-13T00:36:25.914Z,97236.50
2023-01-13T00:38:53.644Z,97228.66
2023-01-13T00:41:24.060Z,97222.13
2023-01-13T00:43:51.783Z,97224.41
2023-01-13T00:46:21.783Z,97215.22
2023-01-13T00:48:51.615Z,97213.81
2023-01-13T00:51:21.396Z,97214.28
2023-01-13T00:53:51.846Z,97210.94
2023-01-13T00:56:38.564Z,97213.25
2023-01-13T00:59:11.635Z,97212.69
2023-01-13T01:01:40.245Z,97206.97
2023-01-13T01:04:08.565Z,97197.09
2023-01-13T01:06:36.380Z,97198.13
2023-01-13T01:09:04.792Z,97196.47
2023-01-13T01:11:34.327Z,97196.63
2023-01-13T01:14:04.295Z,97198.31
2023-01-13T01:16:33.557Z,97189.47
2023-01-13T01:19:02.487Z,97190.47
2023-01-13T01:21:30.201Z,97188.56
2023-01-13T01:24:01.349Z,97193.53
2023-01-13T01:26:31.085Z,97188.19
2023-01-13T01:28:59.561Z,97197.28
2023-01-13T01:31:31.718Z,97195.28
2023-01-13T01:34:00.397Z,97190.56
2023-01-13T01:36:31.791Z,97188.06
2023-01-13T01:39:00.408Z,97196.91
2023-01-13T01:41:32.699Z,97196.47
2023-01-13T01:44:38.115Z,97192.31
2023-01-13T01:47:05.974Z,97193.16
2023-01-13T01:49:37.051Z,97192.16
2023-01-13T01:52:31.075Z,97186.34
2023-01-13T01:55:27.554Z,97176.88
2023-01-13T01:58:35.479Z,97175.47
2023-01-13T02:01:03.533Z,97179.16
2023-01-13T02:03:31.459Z,97178.78
2023-01-13T02:05:59.158Z,97179.72
2023-01-13T02:08:27.242Z,97176.19
2023-01-13T02:10:55.011Z,97175.00
2023-01-13T02:13:23.462Z,97169.75
2023-01-13T02:16:17.056Z,97162.94
2023-01-13T02:19:18.041Z,97169.09
2023-01-13T02:22:37.831Z,97162.38
2023-01-13T02:25:59.031Z,97173.00
2023-01-13T02:29:31.158Z,97164.50
2023-01-13T02:32:22.747Z,97158.41
2023-01-13T02:35:06.666Z,97143.97
2023-01-13T02:37:40.456Z,97147.84
2023-01-13T02:40:30.044Z,97146.66
2023-01-13T02:43:44.879Z,97151.59
2023-01-13T02:46:30.229Z,97131.81
2023-01-13T02:49:06.189Z,97143.91
2023-01-13T02:51:35.379Z,97137.66
2023-01-13T02:54:21.985Z,97137.41
2023-01-13T02:56:53.395Z,97132.69
2023-01-13T02:59:26.207Z,97140.59
2023-01-13T03:01:57.349Z,97137.09
2023-01-13T03:04:51.567Z,97131.81
2023-01-13T03:08:00.970Z,97140.22
2023-01-13T03:10:49.672Z,97127.84
2023-01-13T03:13:52.098Z,97121.13
2023-01-13T03:17:00.765Z,97126.13
2023-01-13T03:20:08.401Z,97127.84
2023-01-13T03:23:01.799Z,97123.56
2023-01-13T03:25:37.055Z,97123.78
2023-01-13T03:28:14.255Z,97130.72
2023-01-13T03:30:54.566Z,97110.91
2023-01-13T03:33:32.333Z,97106.53
2023-01-13T03:36:06.518Z,97097.31
2023-01-13T03:38:39.254Z,97108.25
2023-01-13T03:41:30.252Z,97103.03
2023-01-13T03:44:28.024Z,97100.19
2023-01-13T03:47:13.474Z,97099.41
2023-01-13T03:49:54.596Z,97097.38
2023-01-13T03:52:47.077Z,97092.63
2023-01-13T03:55:26.418Z,97096.06
2023-01-13T03:58:14.241Z,97086.19
2023-01-13T04:00:54.564Z,97078.53
2023-01-13T04:04:25.440Z,97096.22
2023-01-13T04:07:27.079Z,97077.72
2023-01-13T04:10:02.010Z,97073.00
2023-01-13T04:12:54.922Z,97073.28
2023-01-13T04:15:27.963Z,97078.81
2023-01-13T04:18:12.760Z,97074.09
2023-01-13T04:20:41.986Z,97081.09
2023-01-13T04:23:10.237Z,97071.69
2023-01-13T04:25:38.130Z,97061.78
2023-01-13T04:28:05.661Z,97064.53
2023-01-13T04:30:33.535Z,97067.31
2023-01-13T04:33:01.575Z,97059.28
2023-01-13T04:35:29.088Z,97050.50
2023-01-13T04:37:56.694Z,97049.72
2023-01-13T04:40:24.247Z,97053.03
2023-01-13T04:42:51.733Z,97042.78
2023-01-13T04:45:19.249Z,97053.44
2023-01-13T04:47:48.555Z,97046.69
2023-01-13T04:50:19.538Z,97040.72
2023-01-13T04:52:48.919Z,97034.78
2023-01-13T04:55:19.086Z,97049.41
2023-01-13T04:57:46.834Z,97040.81
2023-01-13T05:00:18.146Z,97037.63
2023-01-13T05:02:45.700Z,97043.78
2023-01-13T05:05:13.191Z,97040.50
2023-01-13T05:07:40.667Z,97053.31
2023-01-13T05:10:09.250Z,97050.19
2023-01-13T05:12:55.053Z,97070.59
2023-01-13T05:15:41.334Z,97056.84
2023-01-13T05:18:09.408Z,97055.47
2023-01-13T05:20:37.037Z,97056.91
2023-01-13T05:23:23.028Z,97059.25
2023-01-13T05:25:50.566Z,97052.03
2023-01-13T05:28:18.117Z,97057.38
2023-01-13T05:30:49.078Z,97059.03
2023-01-13T05:33:20.581Z,97051.00
2023-01-13T05:35:49.200Z,97034.63
2023-01-13T05:38:17.962Z,97052.78
2023-01-13T05:41:03.970Z,97059.44
2023-01-13T05:43:32.919Z,97051.22
2023-01-13T05:46:07.883Z,97048.34
2023-01-13T05:48:42.845Z,97050.63
2023-01-13T05:51:12.888Z,97062.97
2023-01-13T05:53:43.634Z,97059.47
2023-01-13T05:56:11.640Z,97060.50
2023-01-13T05:58:39.368Z,97054.94
2023-01-13T06:01:09.756Z,97051.44
2023-01-13T06:03:37.947Z,97050.03
2023-01-13T06:06:08.474Z,97057.25
2023-01-13T06:08:38.680Z,97057.88
2023-01-13T06:11:07.849Z,97054.19
2023-01-13T06:13:35.395Z,97058.69
2023-01-13T06:16:02.991Z,97050.88
2023-01-13T06:18:30.556Z,97056.25
2023-01-13T06:20:58.149Z,97058.31
2023-01-13T06:23:26.328Z,97064.28
2023-01-13T06:26:04.629Z,97064.44
2023-01-13T06:28:33.226Z,97058.69
2023-01-13T06:31:06.341Z,97057.69
2023-01-13T06:33:38.945Z,97055.28
2023-01-13T06:36:16.248Z,97052.78
2023-01-13T06:38:47.692Z,97042.91
2023-01-13T06:41:16.005Z,97049.69
2023-01-13T06:43:43.520Z,97047.03
2023-01-13T06:46:11.112Z,97032.84
2023-01-13T06:48:38.739Z,97042.53
2023-01-13T06:51:06.352Z,97050.75
2023-01-13T06:53:33.844Z,97042.31
2023-01-13T06:56:01.359Z,97041.69
2023-01-13T06:58:28.912Z,97046.22
2023-01-13T07:01:00.849Z,97036.47
2023-01-13T07:03:28.467Z,97044.56
2023-01-13T07:05:56.492Z,97034.25
2023-01-13T07:08:24.421Z,97033.63
2023-01-13T07:10:52.885Z,97037.13
2023-01-13T07:13:39.956Z,97041.66
2023-01-13T07:16:09.353Z,97039.16
2023-01-13T07:18:37.402Z,97037.31
2023-01-13T07:21:08.233Z,97041.66
2023-01-13T07:23:39.528Z,97037.75
2023-01-13T07:26:09.359Z,97045.56
2023-01-13T07:28:38.069Z,97051.31
2023-01-13T07:31:12.783Z,97044.94
2023-01-13T07:33:40.342Z,97052.78
2023-01-13T07:36:08.390Z,97032.81
2023-01-13T07:38:36.223Z,97038.16
2023-01-13T07:41:22.063Z,97048.00
2023-01-13T07:43:50.227Z,97041.66
2023-01-13T07:46:18.821Z,97045.13
2023-01-13T07:48:48.439Z,97039.53
2023-01-13T07:51:16.286Z,97053.13
2023-01-13T07:53:43.775Z,97053.94
2023-01-13T07:56:11.250Z,97050.44
2023-01-13T07:58:38.891Z,97048.84
2023-01-13T08:01:14.068Z,97060.16
2023-01-13T08:03:41.801Z,97064.28
2023-01-13T08:06:11.308Z,97070.72
2023-01-13T08:08:39.462Z,97083.06
2023-01-13T08:11:08.153Z,97094.16
2023-01-13T08:13:36.357Z,97100.13
2023-01-13T08:16:11.890Z,97109.56
2023-01-13T08:18:39.834Z,97116.56
2023-01-13T08:21:14.238Z,97121.03
2023-01-13T08:23:44.032Z,97131.28
2023-01-13T08:26:17.540Z,97123.81
2023-01-13T08:28:45.731Z,97129.38
2023-01-13T08:31:16.916Z,97131.22
2023-01-13T08:33:44.859Z,97135.25
2023-01-13T08:36:12.832Z,97137.09
2023-01-13T08:38:41.374Z,97144.03
2023-01-13T08:41:15.366Z,97152.00
2023-01-13T08:43:43.060Z,97170.06
2023-01-13T08:46:10.669Z,97218.78
2023-01-13T08:48:38.179Z,97222.97
2023-01-13T08:51:09.025Z,97235.69
2023-01-13T08:53:36.718Z,97219.03
2023-01-13T08:56:11.632Z,97222.22
2023-01-13T08:58:40.540Z,97211.16
2023-01-13T09:01:10.926Z,97215.38
2023-01-13T09:03:39.267Z,97207.13
2023-01-13T09:06:06.782Z,97210.84
2023-01-13T09:08:34.270Z,97217.88
2023-01-13T09:11:21.761Z,97231.28
2023-01-13T09:13:49.254Z,97213.47
2023-01-13T09:16:16.788Z,97229.34
2023-01-13T09:18:44.287Z,97232.47
2023-01-13T09:21:19.755Z,97232.28
2023-01-13T09:23:47.289Z,97240.63
2023-01-13T09:26:20.986Z,97238.41
2023-01-13T09:28:48.719Z,97232.38
2023-01-13T09:31:16.263Z,97239.16
2023-01-13T09:34:02.524Z,97229.31
2023-01-13T09:36:29.996Z,97232.31
2023-01-13T09:38:57.494Z,97238.94
2023-01-13T09:41:46.492Z,97237.09
2023-01-13T09:44:29.640Z,97243.50
2023-01-13T09:47:04.072Z,97235.66
2023-01-13T09:49:38.622Z,97244.75
2023-01-13T09:52:27.053Z,97246.00
2023-01-13T09:55:09.223Z,97273.69
2023-01-13T09:57:39.811Z,97280.63
2023-01-13T10:00:24.912Z,97269.97
2023-01-13T10:03:29.744Z,97269.22
2023-01-13T10:06:22.373Z,97264.06
2023-01-13T10:08:50.506Z,97270.38
2023-01-13T10:11:42.822Z,97264.94
2023-01-13T10:14:18.950Z,97271.81
2023-01-13T10:17:15.547Z,97271.66
2023-01-13T10:20:33.182Z,97270.84
2023-01-13T10:24:02.933Z,97274.50
2023-01-13T10:27:07.459Z,97274.50
2023-01-13T10:29:36.657Z,97276.06
2023-01-13T10:32:04.850Z,97277.53
2023-01-13T10:35:00.224Z,97277.75
2023-01-13T10:37:28.546Z,97288.53
2023-01-13T10:40:02.245Z,97284.91
2023-01-13T10:42:29.841Z,97284.13
2023-01-13T10:45:01.247Z,97288.72
2023-01-13T10:47:35.748Z,97276.22
2023-01-13T10:50:12.097Z,97291.13
2023-01-13T10:52:55.857Z,97271.75
2023-01-13T10:55:37.088Z,97274.34
2023-01-13T10:58:25.046Z,97280.16
2023-01-13T11:01:05.556Z,97283.88
2023-01-13T11:03:42.855Z,97281.41
2023-01-13T11:06:33.225Z,97276.97
2023-01-13T11:09:03.047Z,97276.97
2023-01-13T11:11:46.886Z,97274.81
2023-01-13T11:14:42.758Z,97284.28
2023-01-13T11:17:36.140Z,97285.16
2023-01-13T11:20:12.320Z,97288.09
2023-01-13T11:22:44.641Z,97299.03
2023-01-13T11:25:31.411Z,97285.72
2023-01-13T11:28:30.492Z,97293.69
2023-01-13T11:31:13.541Z,97314.41
2023-01-13T11:34:15.188Z,97303.69
2023-01-13T11:36:51.641Z,97302.13
2023-01-13T11:40:01.421Z,97306.41
2023-01-13T11:42:41.617Z,97312.63
2023-01-13T11:45:24.225Z,97307.78
2023-01-13T11:47:55.583Z,97315.72
2023-01-13T11:50:48.065Z,97320.06
2023-01-13T11:54:03.271Z,97294.56
2023-01-13T11:56:53.947Z,97291.50
2023-01-13T11:59:40.172Z,97284.75
2023-01-13T12:02:35.637Z,97280.91
2023-01-13T12:05:34.094Z,97275.44
2023-01-13T12:08:26.485Z,97280.59
2023-01-13T12:12:10.331Z,97284.31
2023-01-13T12:15:02.898Z,97285.41
2023-01-13T12:17:55.334Z,97287.38
2023-01-13T12:20:31.434Z,97285.09
2023-01-13T12:23:06.073Z,97345.84
2023-01-13T12:25:49.574Z,97309.22
2023-01-13T12:28:26.352Z,97314.88
2023-01-13T12:31:00.572Z,97325.72
2023-01-13T12:34:02.120Z,97300.91
2023-01-13T12:36:47.447Z,97312.88
2023-01-13T12:39:50.131Z,97320.34
2023-01-13T12:42:52.331Z,97333.97
2023-01-13T12:45:27.088Z,97335.00
2023-01-13T12:47:55.989Z,97330.03
2023-01-13T12:50:23.789Z,97353.38
2023-01-13T12:52:56.247Z,97364.06
2023-01-13T12:55:35.097Z,97343.16
2023-01-13T12:58:08.445Z,97354.22
2023-01-13T13:00:40.981Z,97352.22
2023-01-13T13:03:11.106Z,97312.88
2023-01-13T13:06:12.919Z,97339.63
2023-01-13T13:09:06.106Z,97315.69
2023-01-13T13:11:58.276Z,97310.66
2023-01-13T13:14:38.125Z,97326.94
2023-01-13T13:17:29.869Z,97326.06
2023-01-13T13:19:59.614Z,97313.28
2023-01-13T13:22:26.963Z,97319.88
2023-01-13T13:24:57.599Z,97309.13
2023-01-13T13:27:53.744Z,97306.97
2023-01-13T13:30:34.102Z,97312.84
2023-01-13T13:33:32.788Z,97326.34
2023-01-13T13:36:44.425Z,97312.00
2023-01-13T13:39:47.371Z,97335.22
2023-01-13T13:42:46.409Z,97326.94
2023-01-13T13:45:40.255Z,97354.91
2023-01-13T13:48:21.198Z,97343.56
2023-01-13T13:51:04.609Z,97351.06
2023-01-13T13:53:38.764Z,97371.16
2023-01-13T13:56:18.905Z,97397.59
2023-01-13T13:58:48.509Z,97399.78
2023-01-13T14:01:34.876Z,97408.81
2023-01-13T14:04:27.365Z,97425.59
2023-01-13T14:07:18.286Z,97427.19
2023-01-13T14:09:50.202Z,97451.34
2023-01-13T14:12:25.236Z,97444.53
2023-01-13T14:14:56.720Z,97443.53
2023-01-13T14:17:28.327Z,97432.69
2023-01-13T14:20:15.791Z,97433.84
2023-01-13T14:22:53.751Z,97430.78
2023-01-13T14:25:30.072Z,97438.28
2023-01-13T14:28:07.722Z,97445.97
2023-01-13T14:30:35.540Z,97439.25
2023-01-13T14:33:03.509Z,97433.38
2023-01-13T14:35:31.047Z,97445.50
2023-01-13T14:38:02.683Z,97455.03
2023-01-13T14:40:33.154Z,97446.53
2023-01-13T14:43:08.111Z,97460.22
2023-01-13T14:45:35.610Z,97471.75
2023-01-13T14:48:08.909Z,97468.22
2023-01-13T14:50:37.037Z,97469.91
2023-01-13T14:53:27.080Z,97472.59
2023-01-13T14:55:54.811Z,97480.44
2023-01-13T14:58:22.390Z,97492.59
2023-01-13T15:00:52.515Z,97499.63
2023-01-13T15:03:21.629Z,97500.63
2023-01-13T15:05:53.248Z,97489.44
2023-01-13T15:08:31.562Z,97495.94
2023-01-13T15:11:02.319Z,97492.78
2023-01-13T15:13:36.228Z,97495.47
2023-01-13T15:16:13.861Z,97493.59
2023-01-13T15:18:41.358Z,97504.63
2023-01-13T15:21:09.909Z,97504.13
2023-01-13T15:23:39.828Z,97513.59
2023-01-13T15:26:26.777Z,97508.13
2023-01-13T15:28:57.743Z,97518.59
2023-01-13T15:31:26.329Z,97513.63
2023-01-13T15:33:54.236Z,97520.09
2023-01-13T15:36:30.893Z,97517.75
2023-01-13T15:39:00.276Z,97524.94
2023-01-13T15:41:46.830Z,97532.06
2023-01-13T15:44:34.573Z,97533.75
2023-01-13T15:47:08.716Z,97542.06
2023-01-13T15:49:44.822Z,97542.72
2023-01-13T15:52:25.150Z,97547.69
2023-01-13T15:54:54.444Z,97561.69
2023-01-13T15:57:31.699Z,97567.81
2023-01-13T16:00:05.012Z,97570.97
2023-01-13T16:02:34.570Z,97570.94
2023-01-13T16:05:02.107Z,97578.94
2023-01-13T16:07:30.081Z,97577.75
2023-01-13T16:09:57.679Z,97584.88
2023-01-13T16:12:25.152Z,97571.06
2023-01-13T16:14:52.687Z,97572.28
2023-01-13T16:17:27.341Z,97579.66
2023-01-13T16:19:55.267Z,97582.31
2023-01-13T16:22:22.824Z,97580.47
2023-01-13T16:24:50.420Z,97593.75
2023-01-13T16:27:22.226Z,97591.28
2023-01-13T16:29:51.746Z,97592.16
2023-01-13T16:32:20.866Z,97587.84
2023-01-13T16:34:49.454Z,97592.72
2023-01-13T16:37:26.101Z,97590.75
2023-01-13T16:39:54.861Z,97609.00
2023-01-13T16:42:22.518Z,97607.00
2023-01-13T16:44:50.669Z,97607.00
2023-01-13T16:47:18.727Z,97614.50
2023-01-13T16:49:47.281Z,97607.53
2023-01-13T16:52:15.143Z,97617.16
2023-01-13T16:54:42.660Z,97623.31
2023-01-13T16:57:13.880Z,97630.81
2023-01-13T16:59:41.380Z,97629.84
2023-01-13T17:02:14.698Z,97627.63
2023-01-13T17:04:42.662Z,97632.97
2023-01-13T17:07:16.433Z,97633.63
2023-01-13T17:09:43.961Z,97630.81
2023-01-13T17:12:11.654Z,97619.19
2023-01-13T17:14:39.970Z,97624.53
2023-01-13T17:17:24.728Z,97611.75
2023-01-13T17:19:53.015Z,97627.38
2023-01-13T17:22:21.555Z,97640.00
2023-01-13T17:24:49.138Z,97649.97
2023-01-13T17:27:18.518Z,97649.13
2023-01-13T17:29:46.062Z,97646.63
2023-01-13T17:32:18.480Z,97645.16
2023-01-13T17:34:46.092Z,97639.56
2023-01-13T17:37:16.128Z,97650.72
2023-01-13T17:39:46.224Z,97646.78
2023-01-13T17:42:15.282Z,97656.63
2023-01-13T17:44:42.872Z,97672.44
2023-01-13T17:47:10.549Z,97670.97
2023-01-13T17:49:38.053Z,97688.50
2023-01-13T17:52:06.458Z,97693.50
2023-01-13T17:54:33.993Z,97707.13
2023-01-13T17:57:01.921Z,97701.66
2023-01-13T17:59:29.416Z,97701.66
2023-01-13T18:01:56.963Z,97699.09
2023-01-13T18:04:30.741Z,97707.22
2023-01-13T18:06:58.261Z,97689.28
2023-01-13T18:09:26.652Z,97693.66
2023-01-13T18:11:54.150Z,97693.06
2023-01-13T18:14:22.447Z,97696.00
2023-01-13T18:16:51.231Z,97694.88
2023-01-13T18:19:37.178Z,97702.09
2023-01-13T18:22:23.341Z,97708.53
2023-01-13T18:25:09.426Z,97715.31
2023-01-13T18:27:41.590Z,97717.00
2023-01-13T18:30:10.992Z,97722.22
2023-01-13T18:32:38.616Z,97740.91
2023-01-13T18:35:10.249Z,97721.03
2023-01-13T18:37:40.423Z,97734.63
2023-01-13T18:40:11.735Z,97737.22
2023-01-13T18:42:51.668Z,97742.78
2023-01-13T18:45:31.737Z,97744.56
2023-01-13T18:48:02.128Z,97749.22
2023-01-13T18:50:30.701Z,97749.66
2023-01-13T18:52:58.527Z,97758.34
2023-01-13T18:55:28.434Z,97762.38
2023-01-13T18:57:57.312Z,97761.28
2023-01-13T19:00:26.773Z,97759.22
2023-01-13T19:05:35.913Z,97771.94
2023-01-13T19:08:04.441Z,97781.16
2023-01-13T19:10:32.498Z,97775.56
2023-01-13T19:13:01.534Z,97779.81
2023-01-13T19:15:29.619Z,97781.31
2023-01-13T19:17:57.166Z,97794.69
2023-01-13T19:20:24.652Z,97785.88
2023-01-13T19:22:54.309Z,97791.94
2023-01-13T19:25:21.985Z,97806.91
2023-01-13T19:27:49.483Z,97815.78
2023-01-13T19:30:17.424Z,97813.75
2023-01-13T19:32:44.934Z,97819.94
2023-01-13T19:35:17.275Z,97832.47
2023-01-13T19:37:45.348Z,97850.16
2023-01-13T19:40:13.819Z,97845.03
2023-01-13T19:43:02.405Z,97851.91
2023-01-13T19:45:32.014Z,97852.44
2023-01-13T19:48:05.328Z,97863.63
2023-01-13T19:50:38.423Z,97863.91
2023-01-13T19:53:08.024Z,97867.88
2023-01-13T19:55:35.635Z,97850.03
2023-01-13T19:58:03.906Z,97860.03
2023-01-13T20:00:31.496Z,97865.44
2023-01-13T20:03:03.214Z,97858.53
2023-01-13T20:05:30.862Z,97847.84
2023-01-13T20:07:58.389Z,97862.34
2023-01-13T20:10:25.951Z,97872.38
2023-01-13T20:12:53.526Z,97884.28
2023-01-13T20:15:21.180Z,97871.44
2023-01-13T20:17:48.674Z,97864.31
2023-01-13T20:20:16.709Z,97869.31
2023-01-13T20:22:44.440Z,97870.16
2023-01-13T20:25:16.518Z,97866.91
2023-01-13T20:27:47.807Z,97891.44
2023-01-13T20:30:15.975Z,97870.59
2023-01-13T20:32:44.345Z,97878.22
2023-01-13T20:35:12.135Z,97889.41
2023-01-13T20:37:42.207Z,97883.22
2023-01-13T20:40:14.001Z,97880.94
2023-01-13T20:42:45.112Z,97883.31
2023-01-13T20:45:17.959Z,97897.22
2023-01-13T20:47:46.264Z,97894.09
2023-01-13T20:50:14.823Z,97900.13
2023-01-13T20:52:42.912Z,97898.41
2023-01-13T20:55:11.397Z,97899.19
2023-01-13T20:57:40.657Z,97890.91
2023-01-13T21:00:11.355Z,97903.88
2023-01-13T21:02:40.579Z,97899.78
2023-01-13T21:05:09.177Z,97894.47
2023-01-13T21:07:36.695Z,97901.91
2023-01-13T21:10:05.739Z,97904.75
2023-01-13T21:12:51.638Z,97907.28
2023-01-13T21:15:21.683Z,97901.97
2023-01-13T21:18:10.170Z,97913.75
2023-01-13T21:20:38.805Z,97901.59
2023-01-13T21:23:06.976Z,97905.31
2023-01-13T21:25:36.349Z,97910.34
2023-01-13T21:28:05.585Z,97913.22
2023-01-13T21:30:33.801Z,97913.59
2023-01-13T21:33:02.449Z,97916.50
2023-01-13T21:35:30.362Z,97915.38
2023-01-13T21:37:57.893Z,97927.53
2023-01-13T21:40:25.528Z,97925.31
2023-01-13T21:43:11.363Z,97930.47
2023-01-13T21:45:57.605Z,97934.97
2023-01-13T21:48:25.113Z,97926.16
2023-01-13T21:50:52.584Z,97940.81
2023-01-13T21:53:20.107Z,97947.28
2023-01-13T21:55:52.243Z,97946.44
2023-01-13T21:58:19.785Z,97955.56
2023-01-13T22:00:49.072Z,97961.16
2023-01-13T22:03:18.583Z,97965.50
2023-01-13T22:05:46.896Z,97961.56
2023-01-13T22:08:14.385Z,97973.03
2023-01-13T22:10:57.764Z,97971.22
2023-01-13T22:13:45.611Z,97962.00
2023-01-13T22:16:13.970Z,97960.19
2023-01-13T22:18:41.495Z,97958.72
2023-01-13T22:21:09.447Z,97953.91
2023-01-13T22:23:36.945Z,97956.84
2023-01-13T22:26:05.984Z,97959.50
2023-01-13T22:28:40.236Z,97955.69
2023-01-13T22:31:14.000Z,97962.09
2023-01-13T22:33:42.367Z,97955.63
2023-01-13T22:36:10.600Z,97966.13
2023-01-13T22:38:38.121Z,97970.53
2023-01-13T22:41:08.675Z,97970.38
2023-01-13T22:43:38.000Z,97977.50
2023-01-13T22:46:09.365Z,97972.66
2023-01-13T22:48:37.875Z,97968.31
2023-01-13T22:51:14.151Z,97969.13
2023-01-13T22:53:42.620Z,97954.09
2023-01-13T22:56:19.936Z,97960.38
2023-01-13T22:58:48.903Z,97963.72
2023-01-13T23:01:17.591Z,97967.53
2023-01-13T23:03:47.801Z,97963.72
2023-01-13T23:06:18.111Z,97973.25
2023-01-13T23:08:46.953Z,97968.06
2023-01-13T23:11:17.583Z,97986.13
2023-01-13T23:13:45.401Z,97983.47
2023-01-13T23:16:17.103Z,97968.25
2023-01-13T23:18:47.856Z,97967.13
2023-01-13T23:21:22.576Z,97973.81
2023-01-13T23:23:50.668Z,97970.41
2023-01-13T23:26:19.519Z,97981.59
2023-01-13T23:28:47.698Z,97978.50
2023-01-13T23:31:19.442Z,97971.50
2023-01-13T23:33:48.570Z,97981.84
2023-01-13T23:36:23.487Z,97977.09
2023-01-13T23:38:52.366Z,97980.78
2023-01-13T23:41:23.996Z,97973.38
2023-01-13T23:43:58.812Z,97964.56
2023-01-13T23:46:31.164Z,97963.88
2023-01-13T23:48:58.786Z,97965.41
2023-01-13T23:51:27.452Z,97963.44
2023-01-13T23:53:55.032Z,97965.41
2023-01-13T23:56:26.699Z,97962.75
2023-01-13T23:58:54.753Z,97973.53
